Time;durP1;ratioP1;P1;durP2;ratioP2;P2;SDS_P1;SDS_P2;PMS_P1;PMS_P2;Temp;Humidity;BMP_temperature;BMP_pressure;BME280_temperature;BME280_humidity;BME280_pressure;Samples;Min_cycle;Max_cycle;Signal;HPM_P1;HPM_P2
2024/01/19 00:01:31;;;;;;;31.67;21.57;;;-1.90;99.90;;;;;;5095033;28;20238;-77
2024/01/19 00:03:58;;;;;;;32.57;21.73;;;-1.80;99.90;;;;;;5095111;28;20270;-77
2024/01/19 00:06:23;;;;;;;28.50;19.87;;;-1.80;99.90;;;;;;5094548;28;20181;-77
2024/01/19 00:08:49;;;;;;;34.30;21.20;;;-1.80;99.90;;;;;;5095106;28;20582;-77
2024/01/19 00:11:15;;;;;;;30.47;21.77;;;-1.80;99.90;;;;;;5095074;28;20177;-77
2024/01/19 00:13:44;;;;;;;32.03;20.30;;;-1.80;99.90;;;;;;5095018;28;20173;-77
2024/01/19 00:16:10;;;;;;;33.23;22.80;;;-1.80;99.90;;;;;;5094988;28;20303;-77
2024/01/19 00:18:35;;;;;;;32.97;22.07;;;-1.70;99.90;;;;;;5091772;28;20205;-77
2024/01/19 00:21:01;;;;;;;33.60;22.00;;;-1.70;99.90;;;;;;5094753;28;20174;-77
2024/01/19 00:23:27;;;;;;;33.73;21.37;;;-1.70;99.90;;;;;;5093945;28;20174;-78
2024/01/19 00:25:52;;;;;;;38.57;21.93;;;-1.70;99.90;;;;;;5095852;28;20177;-78
2024/01/19 00:28:18;;;;;;;41.50;20.93;;;-1.70;99.90;;;;;;5095179;28;20576;-78
2024/01/19 00:30:43;;;;;;;39.13;20.83;;;-1.70;99.90;;;;;;5096497;28;20189;-78
2024/01/19 00:33:10;;;;;;;28.83;19.80;;;-1.70;99.90;;;;;;5096648;28;20200;-77
2024/01/19 00:35:36;;;;;;;32.47;20.73;;;-1.80;99.90;;;;;;5096636;28;20654;-78
2024/01/19 00:38:02;;;;;;;35.73;19.37;;;-1.70;99.90;;;;;;5094505;28;20219;-78
2024/01/19 00:40:27;;;;;;;27.13;19.10;;;-1.80;99.90;;;;;;5096243;28;20739;-78
2024/01/19 00:42:53;;;;;;;28.23;18.80;;;-1.80;99.90;;;;;;5096200;28;20174;-77
2024/01/19 00:45:18;;;;;;;39.40;19.10;;;-1.90;99.90;;;;;;5096096;28;20188;-78
2024/01/19 00:47:44;;;;;;;38.43;19.57;;;-1.90;99.90;;;;;;5095377;28;20192;-77
2024/01/19 00:50:09;;;;;;;38.03;18.83;;;-1.90;99.90;;;;;;5094037;28;20205;-77
2024/01/19 00:52:35;;;;;;;24.63;17.53;;;-2.00;99.90;;;;;;5094385;28;20278;-77
2024/01/19 00:55:01;;;;;;;38.37;19.03;;;-2.00;99.90;;;;;;5093821;28;20182;-77
2024/01/19 00:57:26;;;;;;;34.73;17.90;;;-2.10;99.90;;;;;;5093528;28;20199;-77
2024/01/19 00:59:52;;;;;;;27.13;18.53;;;-2.10;99.90;;;;;;5090867;28;20251;-77
2024/01/19 01:02:19;;;;;;;31.57;18.57;;;-2.00;99.90;;;;;;5093625;28;20192;-78
2024/01/19 01:04:44;;;;;;;34.60;18.90;;;-2.00;99.90;;;;;;5094027;28;20189;-77
2024/01/19 01:07:10;;;;;;;29.87;19.27;;;-2.00;99.90;;;;;;5092493;28;20707;-77
2024/01/19 01:09:35;;;;;;;35.03;19.53;;;-2.00;99.90;;;;;;5094103;28;20201;-77
2024/01/19 01:12:02;;;;;;;31.40;19.80;;;-2.00;99.90;;;;;;5093820;28;20634;-77
2024/01/19 01:14:28;;;;;;;32.20;19.70;;;-2.00;99.90;;;;;;5092614;28;20291;-77
2024/01/19 01:16:53;;;;;;;34.10;20.23;;;-2.00;99.90;;;;;;5093726;28;20198;-77
2024/01/19 01:19:19;;;;;;;31.00;20.33;;;-2.00;99.90;;;;;;5091572;28;20215;-77
2024/01/19 01:21:44;;;;;;;36.93;21.13;;;-2.00;99.90;;;;;;5092306;28;20284;-77
2024/01/19 01:24:10;;;;;;;33.57;20.27;;;-1.90;99.90;;;;;;5093446;28;20196;-77
2024/01/19 01:26:35;;;;;;;35.83;20.17;;;-2.00;99.90;;;;;;5093398;28;20209;-77
2024/01/19 01:29:01;;;;;;;42.33;21.57;;;-2.00;99.90;;;;;;5091714;28;20205;-77
2024/01/19 01:31:26;;;;;;;34.83;22.13;;;-2.00;99.90;;;;;;5093208;28;20177;-77
2024/01/19 01:33:52;;;;;;;38.03;22.90;;;-2.00;99.90;;;;;;5092049;28;20640;-77
2024/01/19 01:36:18;;;;;;;40.60;22.93;;;-2.00;99.90;;;;;;5092987;28;20205;-77
2024/01/19 01:38:43;;;;;;;38.37;22.87;;;-2.00;99.90;;;;;;5091389;28;20207;-77
2024/01/19 01:41:09;;;;;;;39.47;22.83;;;-1.90;99.90;;;;;;5093010;28;20201;-76
2024/01/19 01:43:34;;;;;;;39.37;23.70;;;-1.90;99.90;;;;;;5091506;28;20268;-77
2024/01/19 01:46:00;;;;;;;36.60;23.30;;;-1.90;99.90;;;;;;5091531;28;20203;-77
2024/01/19 01:48:26;;;;;;;42.20;24.60;;;-1.90;99.90;;;;;;5091404;28;20219;-77
2024/01/19 01:50:54;;;;;;;45.33;24.03;;;-1.90;99.90;;;;;;5090892;28;20204;-75
2024/01/19 01:53:20;;;;;;;44.03;24.67;;;-2.00;99.90;;;;;;5092739;28;20238;-77
2024/01/19 01:55:47;;;;;;;41.30;23.50;;;-2.00;99.90;;;;;;5092676;28;20244;-77
2024/01/19 01:58:13;;;;;;;44.20;25.77;;;-2.00;99.90;;;;;;5092802;28;20653;-77
2024/01/19 02:00:41;;;;;;;52.23;25.67;;;-1.90;99.90;;;;;;5091516;28;20619;-77
2024/01/19 02:03:07;;;;;;;48.13;25.13;;;-1.90;99.90;;;;;;5091190;28;20221;-77
2024/01/19 02:05:32;;;;;;;43.80;24.90;;;-1.90;99.90;;;;;;5091250;28;20188;-77
2024/01/19 02:07:58;;;;;;;45.47;24.87;;;-1.90;99.90;;;;;;5092668;28;20227;-75
2024/01/19 02:10:24;;;;;;;47.50;25.57;;;-1.90;99.90;;;;;;5091235;28;20640;-77
2024/01/19 02:12:50;;;;;;;44.73;24.63;;;-1.90;99.90;;;;;;5091169;28;20187;-77
2024/01/19 02:15:25;;;;;;;45.63;25.23;;;-1.90;99.90;;;;;;5090446;28;20273;-77
2024/01/19 02:17:54;;;;;;;48.47;26.33;;;-1.80;99.90;;;;;;5092520;28;20259;-77
2024/01/19 02:20:20;;;;;;;51.40;24.63;;;-1.80;99.90;;;;;;5091065;28;20198;-77
2024/01/19 02:22:47;;;;;;;52.60;24.30;;;-1.90;99.90;;;;;;5092569;28;20226;-77
2024/01/19 02:25:13;;;;;;;57.37;23.87;;;-1.90;99.90;;;;;;5092497;28;20196;-77
2024/01/19 02:27:39;;;;;;;54.43;24.93;;;-1.90;99.90;;;;;;5092392;28;20276;-77
2024/01/19 02:30:08;;;;;;;45.20;25.43;;;-1.90;99.90;;;;;;5092171;28;20205;-77
2024/01/19 02:32:34;;;;;;;44.57;24.57;;;-1.90;99.90;;;;;;5091118;28;20255;-77
2024/01/19 02:34:59;;;;;;;49.00;26.50;;;-1.80;99.90;;;;;;5092214;28;20181;-77
2024/01/19 02:37:25;;;;;;;51.00;26.50;;;-1.80;99.90;;;;;;5090876;28;20171;-77
2024/01/19 02:39:51;;;;;;;53.60;26.83;;;-1.80;99.90;;;;;;5092229;28;20270;-76
2024/01/19 02:42:16;;;;;;;53.77;26.80;;;-1.80;99.90;;;;;;5093281;28;20580;-77
2024/01/19 02:44:42;;;;;;;56.37;27.53;;;-1.70;99.90;;;;;;5096736;28;20177;-77
2024/01/19 02:47:07;;;;;;;53.43;26.00;;;-1.70;99.90;;;;;;5095082;28;20193;-77
2024/01/19 02:49:33;;;;;;;57.57;26.80;;;-1.60;99.90;;;;;;5094303;28;20206;-76
2024/01/19 02:51:59;;;;;;;57.77;28.10;;;-1.60;99.90;;;;;;5094901;28;20186;-77
2024/01/19 02:54:24;;;;;;;54.20;27.00;;;-1.60;99.90;;;;;;5094723;28;20638;-77
2024/01/19 02:56:50;;;;;;;51.60;26.37;;;-1.60;99.90;;;;;;5096230;28;20203;-77
2024/01/19 02:59:15;;;;;;;54.97;26.80;;;-1.50;99.90;;;;;;5094792;28;20190;-77
2024/01/19 03:01:41;;;;;;;56.77;26.10;;;-1.50;99.90;;;;;;5095267;28;20178;-76
2024/01/19 03:04:06;;;;;;;58.27;27.07;;;-1.50;99.90;;;;;;5094652;28;20261;-77
2024/01/19 03:06:32;;;;;;;64.07;28.40;;;-1.50;99.90;;;;;;5096071;28;20256;-77
2024/01/19 03:08:57;;;;;;;59.47;29.13;;;-1.50;99.90;;;;;;5095748;28;20198;-77
2024/01/19 03:11:23;;;;;;;55.80;27.00;;;-1.50;99.90;;;;;;5092936;28;20178;-77
2024/01/19 03:13:50;;;;;;;63.63;27.03;;;-1.40;99.90;;;;;;5096214;28;20471;-77
2024/01/19 03:16:16;;;;;;;58.47;26.20;;;-1.40;99.90;;;;;;5095907;28;20622;-77
2024/01/19 03:18:41;;;;;;;73.13;29.93;;;-1.40;99.90;;;;;;5093586;28;20247;-77
2024/01/19 03:21:07;;;;;;;60.70;28.57;;;-1.30;99.90;;;;;;5094515;28;20257;-77
2024/01/19 03:23:33;;;;;;;62.13;28.27;;;-1.30;99.90;;;;;;5096254;28;20227;-77
2024/01/19 03:25:59;;;;;;;59.63;30.33;;;-1.30;99.90;;;;;;5094905;28;20560;-77
2024/01/19 03:28:24;;;;;;;64.70;29.13;;;-1.20;99.90;;;;;;5095709;28;20190;-77
2024/01/19 03:30:50;;;;;;;67.60;30.43;;;-1.20;99.90;;;;;;5094208;28;20186;-76
2024/01/19 03:33:15;;;;;;;63.37;29.40;;;-1.20;99.90;;;;;;5096186;28;20232;-77
2024/01/19 03:35:41;;;;;;;65.67;30.13;;;-1.20;99.90;;;;;;5090296;28;20212;-77
2024/01/19 03:38:07;;;;;;;59.27;28.50;;;-1.20;99.90;;;;;;5075207;28;20167;-77
2024/01/19 03:40:32;;;;;;;64.73;29.53;;;-1.10;99.90;;;;;;5074994;28;20179;-77
2024/01/19 03:42:58;;;;;;;62.00;30.83;;;-1.20;99.90;;;;;;5073698;28;20178;-77
2024/01/19 03:45:23;;;;;;;56.57;29.30;;;-1.10;99.90;;;;;;5090827;28;20178;-78
2024/01/19 03:47:49;;;;;;;65.47;29.80;;;-1.10;99.90;;;;;;5075322;28;20645;-78
2024/01/19 03:50:14;;;;;;;62.40;29.33;;;-1.10;99.90;;;;;;5075124;28;20195;-77
2024/01/19 03:52:40;;;;;;;62.93;31.30;;;-1.00;99.90;;;;;;5093684;28;20188;-77
2024/01/19 03:55:06;;;;;;;61.13;30.00;;;-1.00;99.90;;;;;;5094854;28;20551;-77
2024/01/19 03:57:31;;;;;;;63.80;30.70;;;-1.10;99.90;;;;;;5095197;28;20227;-77
2024/01/19 03:59:57;;;;;;;61.43;31.40;;;-1.10;99.90;;;;;;5093701;28;20197;-77
2024/01/19 04:02:23;;;;;;;63.20;29.80;;;-1.00;99.90;;;;;;5094188;28;20689;-77
2024/01/19 04:04:48;;;;;;;62.73;29.80;;;-1.00;99.90;;;;;;5093419;28;20189;-77
2024/01/19 04:07:14;;;;;;;62.07;28.73;;;-1.00;99.90;;;;;;5095458;28;20273;-77
2024/01/19 04:09:41;;;;;;;61.60;30.13;;;-1.00;99.90;;;;;;5093676;28;20205;-77
2024/01/19 04:12:11;;;;;;;70.17;29.93;;;-1.00;99.90;;;;;;5094901;28;20185;-77
2024/01/19 04:14:37;;;;;;;59.90;28.97;;;-1.00;99.90;;;;;;5093389;28;20186;-77
2024/01/19 04:17:03;;;;;;;59.13;28.53;;;-1.00;99.90;;;;;;5094694;28;20201;-77
2024/01/19 04:19:28;;;;;;;59.57;29.40;;;-1.00;99.90;;;;;;5094829;28;20194;-77
2024/01/19 04:21:54;;;;;;;66.47;28.73;;;-0.90;99.90;;;;;;5094820;28;20175;-77
2024/01/19 04:24:19;;;;;;;59.73;28.37;;;-0.90;99.90;;;;;;5093097;28;20208;-77
2024/01/19 04:26:45;;;;;;;64.33;27.47;;;-0.90;99.90;;;;;;5092938;28;20182;-77
2024/01/19 04:29:10;;;;;;;66.33;29.77;;;-0.90;99.90;;;;;;5094400;28;20553;-76
2024/01/19 04:31:36;;;;;;;68.77;29.50;;;-0.90;99.90;;;;;;5093680;28;20175;-78
2024/01/19 04:34:02;;;;;;;61.00;27.43;;;-0.90;99.90;;;;;;5095362;28;20194;-78
2024/01/19 04:36:27;;;;;;;60.47;27.90;;;-0.90;99.90;;;;;;5093288;28;20198;-78
2024/01/19 04:38:53;;;;;;;62.57;28.70;;;-0.80;99.90;;;;;;5094432;28;20549;-77
2024/01/19 04:41:19;;;;;;;59.17;28.37;;;-0.80;99.90;;;;;;5093280;28;20219;-77
2024/01/19 04:43:44;;;;;;;65.30;27.53;;;-0.80;99.90;;;;;;5094444;28;20238;-77
2024/01/19 04:46:10;;;;;;;64.07;28.37;;;-0.80;99.90;;;;;;5094230;28;20322;-77
2024/01/19 04:48:35;;;;;;;56.60;26.73;;;-0.80;99.90;;;;;;5093213;28;20197;-77
2024/01/19 04:51:01;;;;;;;60.27;28.27;;;-0.80;99.90;;;;;;5092905;28;20668;-77
2024/01/19 04:53:26;;;;;;;62.03;28.13;;;-0.80;99.90;;;;;;5094149;28;20178;-77
2024/01/19 04:55:52;;;;;;;57.07;27.80;;;-0.80;99.90;;;;;;5092705;28;20219;-77
2024/01/19 04:58:17;;;;;;;62.40;28.97;;;-0.70;99.90;;;;;;5092263;28;20216;-76
2024/01/19 05:00:43;;;;;;;62.50;26.37;;;-0.70;99.90;;;;;;5094131;28;20649;-77
2024/01/19 05:03:08;;;;;;;55.37;26.70;;;-0.70;99.90;;;;;;5092835;28;20178;-77
2024/01/19 05:05:34;;;;;;;58.53;27.40;;;-0.70;99.90;;;;;;5093715;28;20180;-77
2024/01/19 05:08:00;;;;;;;51.83;26.10;;;-0.70;99.90;;;;;;5094763;28;20174;-77
2024/01/19 05:10:26;;;;;;;63.63;27.60;;;-0.70;99.90;;;;;;5096604;28;20592;-77
2024/01/19 05:12:51;;;;;;;56.17;27.27;;;-0.60;99.90;;;;;;5093684;28;20174;-76
2024/01/19 05:15:17;;;;;;;60.33;28.13;;;-0.60;99.90;;;;;;5093544;28;20206;-76
2024/01/19 05:17:42;;;;;;;55.17;26.90;;;-0.60;99.90;;;;;;5093655;28;20258;-77
2024/01/19 05:20:09;;;;;;;53.77;25.30;;;-0.60;99.90;;;;;;5093746;28;20213;-77
2024/01/19 05:22:34;;;;;;;51.00;25.87;;;-0.60;99.90;;;;;;5092517;28;20182;-77
2024/01/19 05:25:01;;;;;;;60.20;26.57;;;-0.30;99.90;;;;;;5092977;28;20512;-76
2024/01/19 05:27:27;;;;;;;61.37;26.70;;;-0.50;99.90;;;;;;5091797;28;20261;-77
2024/01/19 05:29:52;;;;;;;54.00;26.47;;;-0.50;99.90;;;;;;5091578;28;20617;-77
2024/01/19 05:32:18;;;;;;;57.37;25.43;;;-0.50;99.90;;;;;;5093151;28;20197;-77
2024/01/19 05:34:44;;;;;;;59.80;26.50;;;-0.50;99.90;;;;;;5092000;28;20617;-77
2024/01/19 05:37:09;;;;;;;55.93;26.30;;;-0.50;99.90;;;;;;5091697;28;20197;-77
2024/01/19 05:39:35;;;;;;;60.87;26.63;;;-0.50;99.90;;;;;;5092888;28;20217;-79
2024/01/19 05:42:00;;;;;;;59.67;26.83;;;-0.50;99.90;;;;;;5093054;28;20170;-77
2024/01/19 05:44:26;;;;;;;65.50;26.20;;;-0.50;99.90;;;;;;5091769;28;20174;-77
2024/01/19 05:46:51;;;;;;;60.63;27.73;;;-0.40;99.90;;;;;;5090730;28;20645;-77
2024/01/19 05:49:17;;;;;;;52.63;26.37;;;-0.40;99.90;;;;;;5092655;28;20703;-76
2024/01/19 05:51:43;;;;;;;56.57;27.03;;;-0.40;99.90;;;;;;5091339;28;20661;-75
2024/01/19 05:54:08;;;;;;;60.90;26.47;;;-0.40;99.90;;;;;;5092762;28;20177;-76
2024/01/19 05:56:34;;;;;;;55.00;25.90;;;-0.40;99.90;;;;;;5108345;28;20193;-77
2024/01/19 05:58:59;;;;;;;59.53;25.80;;;-0.40;99.90;;;;;;5111693;28;20193;-77
2024/01/19 06:01:25;;;;;;;53.03;26.63;;;-0.40;99.90;;;;;;5102828;28;20638;-77
2024/01/19 06:03:50;;;;;;;57.03;26.00;;;-0.30;99.90;;;;;;5092703;28;20542;-76
2024/01/19 06:06:16;;;;;;;54.43;24.10;;;-0.30;99.90;;;;;;5092734;28;20568;-76
2024/01/19 06:08:41;;;;;;;56.17;26.40;;;-0.30;99.90;;;;;;5091299;28;20213;-77
2024/01/19 06:11:07;;;;;;;52.00;25.90;;;-0.30;99.90;;;;;;5092801;28;20243;-77
2024/01/19 06:13:33;;;;;;;52.27;25.00;;;-0.30;99.90;;;;;;5091238;28;20657;-76
2024/01/19 06:16:00;;;;;;;49.63;25.53;;;-0.30;99.90;;;;;;5090202;28;20692;-77
2024/01/19 06:18:26;;;;;;;54.33;27.07;;;-0.30;99.90;;;;;;5090474;28;20217;-77
2024/01/19 06:20:51;;;;;;;54.87;26.47;;;-0.30;99.90;;;;;;5092601;28;20580;-77
2024/01/19 06:23:17;;;;;;;54.23;24.70;;;-0.30;99.90;;;;;;5093432;28;20167;-76
2024/01/19 06:25:43;;;;;;;49.20;24.27;;;-0.30;99.90;;;;;;5112713;28;20186;-77
2024/01/19 06:28:09;;;;;;;47.33;25.20;;;-0.30;99.90;;;;;;5113292;28;20679;-77
2024/01/19 06:30:34;;;;;;;50.07;24.97;;;-0.30;99.90;;;;;;5113995;28;20544;-77
2024/01/19 06:33:00;;;;;;;51.77;24.27;;;-0.30;99.90;;;;;;5114294;28;20245;-77
2024/01/19 06:35:25;;;;;;;53.60;25.43;;;-0.30;99.90;;;;;;5113557;28;20189;-76
2024/01/19 06:37:51;;;;;;;45.53;24.33;;;-0.30;99.90;;;;;;5112269;28;20184;-75
2024/01/19 06:40:18;;;;;;;47.47;24.60;;;-0.30;99.90;;;;;;5112510;28;20189;-75
2024/01/19 06:42:44;;;;;;;45.73;24.20;;;-0.30;99.90;;;;;;5112547;28;20625;-75
2024/01/19 06:45:10;;;;;;;47.33;25.77;;;-0.30;99.90;;;;;;5111449;28;20600;-76
2024/01/19 06:47:36;;;;;;;42.10;23.87;;;-0.30;99.90;;;;;;5111090;28;20197;-74
2024/01/19 06:50:01;;;;;;;40.87;23.47;;;-0.30;99.90;;;;;;5112634;28;20652;-74
2024/01/19 06:52:27;;;;;;;46.43;24.20;;;-0.30;99.90;;;;;;5111267;28;20177;-74
2024/01/19 06:54:52;;;;;;;39.93;23.00;;;-0.20;99.90;;;;;;5111327;28;20181;-74
2024/01/19 06:57:18;;;;;;;40.30;23.90;;;-0.30;99.90;;;;;;5112521;28;20198;-72
2024/01/19 06:59:43;;;;;;;42.70;22.90;;;-0.30;99.90;;;;;;5110879;28;20186;-74
2024/01/19 07:02:09;;;;;;;46.00;24.67;;;-0.30;99.90;;;;;;5112394;28;20490;-74
2024/01/19 07:04:35;;;;;;;47.07;24.17;;;-0.30;99.90;;;;;;5112124;28;20261;-75
2024/01/19 07:07:00;;;;;;;45.73;24.10;;;-0.30;99.90;;;;;;5112650;28;20174;-75
2024/01/19 07:09:27;;;;;;;44.20;22.60;;;-0.20;99.90;;;;;;5110932;28;20209;-74
2024/01/19 07:11:53;;;;;;;44.50;23.13;;;-0.30;99.90;;;;;;5110944;28;20173;-75
2024/01/19 07:14:18;;;;;;;46.97;23.30;;;-0.30;99.90;;;;;;5112213;28;20569;-75
2024/01/19 07:16:44;;;;;;;44.63;23.60;;;-0.30;99.90;;;;;;5110755;28;20292;-74
2024/01/19 07:19:10;;;;;;;37.87;23.17;;;-0.30;99.90;;;;;;5112272;28;20190;-75
2024/01/19 07:21:42;;;;;;;46.20;24.37;;;-0.30;99.90;;;;;;5110763;28;20246;-75
2024/01/19 07:24:09;;;;;;;39.33;24.00;;;-0.30;99.90;;;;;;5112079;28;20637;-75
2024/01/19 07:26:35;;;;;;;49.03;24.70;;;-0.30;99.90;;;;;;5110798;28;20240;-75
2024/01/19 07:29:04;;;;;;;42.73;25.83;;;-0.30;99.90;;;;;;5115280;28;20246;-75
2024/01/19 07:31:31;;;;;;;51.43;27.17;;;-0.30;99.90;;;;;;5114493;28;20230;-76
2024/01/19 07:33:56;;;;;;;39.03;25.10;;;-0.30;99.90;;;;;;5115558;28;20276;-75
2024/01/19 07:36:22;;;;;;;46.97;26.53;;;-0.30;99.90;;;;;;5114203;28;20300;-75
2024/01/19 07:38:48;;;;;;;46.37;26.60;;;-0.30;99.90;;;;;;5115446;28;20197;-75
2024/01/19 07:41:13;;;;;;;44.47;24.97;;;-0.30;99.90;;;;;;5115632;28;20226;-75
2024/01/19 07:43:39;;;;;;;47.90;26.53;;;-0.30;99.90;;;;;;5115304;28;20181;-75
2024/01/19 07:46:04;;;;;;;48.13;25.73;;;-0.30;99.90;;;;;;5115388;28;20173;-75
2024/01/19 07:48:30;;;;;;;54.27;26.70;;;-0.30;99.90;;;;;;5115282;28;20193;-74
2024/01/19 07:50:55;;;;;;;51.77;27.07;;;-0.30;99.90;;;;;;5115257;28;20185;-75
2024/01/19 07:53:21;;;;;;;50.30;27.93;;;-0.30;99.90;;;;;;5115124;28;20629;-75
2024/01/19 07:55:46;;;;;;;50.83;27.93;;;-0.30;99.90;;;;;;5113837;28;20197;-75
2024/01/19 07:58:12;;;;;;;44.50;25.57;;;-0.30;99.90;;;;;;5113900;28;20204;-75
2024/01/19 08:00:37;;;;;;;43.87;26.57;;;-0.30;99.90;;;;;;5113722;28;20212;-75
2024/01/19 08:03:04;;;;;;;51.60;27.10;;;-0.30;99.90;;;;;;5114514;28;20784;-75
2024/01/19 08:05:29;;;;;;;53.50;27.60;;;-0.20;99.90;;;;;;5115169;28;20201;-75
2024/01/19 08:07:55;;;;;;;48.57;26.63;;;-0.30;99.90;;;;;;5115442;28;20216;-76
2024/01/19 08:10:21;;;;;;;45.53;27.03;;;-0.20;99.90;;;;;;5114832;28;20193;-75
2024/01/19 08:12:46;;;;;;;47.27;27.77;;;-0.20;99.90;;;;;;5114867;28;20610;-75
2024/01/19 08:15:12;;;;;;;42.30;26.47;;;-0.30;99.90;;;;;;5114791;28;20189;-76
2024/01/19 08:17:37;;;;;;;47.20;25.77;;;-0.20;99.90;;;;;;5115095;28;20172;-75
2024/01/19 08:20:03;;;;;;;40.87;24.87;;;-0.20;99.90;;;;;;5113455;28;20213;-75
2024/01/19 08:22:29;;;;;;;43.07;24.17;;;-0.30;99.90;;;;;;5117097;28;20326;-74
2024/01/19 08:24:55;;;;;;;39.47;24.83;;;-0.30;99.90;;;;;;5118411;28;20184;-75
2024/01/19 08:27:20;;;;;;;45.70;25.43;;;-0.20;99.90;;;;;;5115529;28;20690;-74
2024/01/19 08:29:49;;;;;;;42.90;24.57;;;-0.20;99.90;;;;;;5114436;28;20197;-75
2024/01/19 08:32:14;;;;;;;41.97;24.03;;;-0.20;99.90;;;;;;5114326;28;20250;-75
2024/01/19 08:34:42;;;;;;;44.63;24.60;;;-0.20;99.90;;;;;;5114443;28;20612;-75
2024/01/19 08:37:08;;;;;;;37.20;23.77;;;-0.20;99.90;;;;;;5114547;28;20510;-75
2024/01/19 08:39:34;;;;;;;40.07;23.73;;;-0.30;99.90;;;;;;5112078;28;20207;-74
2024/01/19 08:42:00;;;;;;;41.97;23.70;;;-0.30;99.90;;;;;;5112953;28;20269;-75
2024/01/19 08:44:25;;;;;;;36.97;22.77;;;-0.20;99.90;;;;;;5112800;28;20609;-75
2024/01/19 08:46:51;;;;;;;37.13;23.00;;;-0.30;99.90;;;;;;5114135;28;20173;-75
2024/01/19 08:49:16;;;;;;;38.43;22.47;;;-0.30;99.90;;;;;;5113941;28;20288;-75
2024/01/19 08:51:43;;;;;;;38.37;22.87;;;-0.20;99.90;;;;;;5114059;28;20541;-75
2024/01/19 08:54:09;;;;;;;41.03;23.13;;;-0.20;99.90;;;;;;5114054;28;20688;-75
2024/01/19 08:56:35;;;;;;;40.97;23.70;;;-0.20;99.90;;;;;;5113857;28;20277;-75
2024/01/19 08:59:00;;;;;;;43.90;24.17;;;-0.20;99.90;;;;;;5113948;28;20323;-75
2024/01/19 09:01:26;;;;;;;39.33;25.40;;;-0.20;99.90;;;;;;5112494;28;20310;-75
2024/01/19 09:03:52;;;;;;;44.53;25.37;;;-0.20;99.90;;;;;;5113959;28;20162;-75
2024/01/19 09:06:18;;;;;;;45.57;23.43;;;-0.10;99.90;;;;;;5112245;28;20264;-75
2024/01/19 09:08:44;;;;;;;41.47;25.80;;;-0.10;99.90;;;;;;5112374;28;20193;-76
2024/01/19 09:11:10;;;;;;;47.07;24.53;;;-0.10;99.90;;;;;;5112404;28;20196;-74
2024/01/19 09:13:37;;;;;;;44.87;23.70;;;-0.10;99.90;;;;;;5113685;28;20542;-75
2024/01/19 09:16:08;;;;;;;39.83;24.57;;;-0.10;99.90;;;;;;5112142;28;20201;-76
2024/01/19 09:18:38;;;;;;;40.47;24.73;;;-0.10;99.90;;;;;;5113704;28;20482;-76
2024/01/19 09:21:04;;;;;;;38.73;23.07;;;-0.10;99.90;;;;;;5113565;28;20227;-75
2024/01/19 09:23:30;;;;;;;41.10;25.50;;;-0.10;99.90;;;;;;5113668;28;20176;-75
2024/01/19 09:25:56;;;;;;;37.67;24.83;;;0.00;99.90;;;;;;5113313;28;20170;-76
2024/01/19 09:28:21;;;;;;;43.00;25.70;;;0.00;99.90;;;;;;5113538;28;20178;-75
2024/01/19 09:30:47;;;;;;;45.40;27.43;;;0.00;99.90;;;;;;5111994;28;20173;-75
2024/01/19 09:33:14;;;;;;;43.60;25.97;;;0.00;99.90;;;;;;5111885;28;20671;-76
2024/01/19 09:35:40;;;;;;;44.37;26.47;;;0.10;99.90;;;;;;5111893;28;20193;-75
2024/01/19 09:38:06;;;;;;;45.97;27.03;;;0.10;99.90;;;;;;5111885;28;20652;-74
2024/01/19 09:40:33;;;;;;;39.20;24.67;;;0.10;99.90;;;;;;5111935;28;20194;-75
2024/01/19 09:42:59;;;;;;;42.07;25.57;;;0.10;99.90;;;;;;5111913;28;20653;-75
2024/01/19 09:45:40;;;;;;;45.77;26.10;;;0.10;99.90;;;;;;5111939;28;20173;-75
2024/01/19 09:48:08;;;;;;;38.03;24.17;;;0.10;99.90;;;;;;5113086;27;20575;-74
2024/01/19 09:50:35;;;;;;;37.87;25.60;;;0.10;99.90;;;;;;5111644;28;20174;-75
2024/01/19 09:53:09;;;;;;;42.53;25.17;;;0.20;99.90;;;;;;5113177;28;20173;-75
2024/01/19 09:55:34;;;;;;;39.70;24.37;;;0.20;99.90;;;;;;5113135;28;20189;-75
2024/01/19 09:58:00;;;;;;;48.20;25.93;;;0.20;99.90;;;;;;5111493;28;20173;-75
2024/01/19 10:00:27;;;;;;;44.73;26.67;;;0.20;99.90;;;;;;5111245;28;20193;-74
2024/01/19 10:02:54;;;;;;;46.17;27.50;;;0.30;99.90;;;;;;5112793;28;20215;-74
2024/01/19 10:05:20;;;;;;;45.80;24.90;;;0.30;99.90;;;;;;5112706;28;20251;-74
2024/01/19 10:07:55;;;;;;;42.67;26.03;;;0.20;99.90;;;;;;5111308;28;20172;-74
2024/01/19 10:10:20;;;;;;;48.37;25.80;;;0.10;99.90;;;;;;5111190;28;20189;-74
2024/01/19 10:12:46;;;;;;;38.93;24.30;;;0.20;99.90;;;;;;5112806;28;20488;-75
2024/01/19 10:15:13;;;;;;;39.90;25.57;;;0.10;99.90;;;;;;5112803;28;20637;-75
2024/01/19 10:17:40;;;;;;;38.67;23.43;;;0.20;99.90;;;;;;5112853;28;20180;-75
2024/01/19 10:20:09;;;;;;;39.17;22.43;;;0.20;99.90;;;;;;5111214;28;20566;-75
2024/01/19 10:22:35;;;;;;;42.70;24.87;;;0.20;99.90;;;;;;5112553;28;20174;-75
2024/01/19 10:25:03;;;;;;;36.87;23.83;;;0.20;99.90;;;;;;5111221;28;20193;-75
2024/01/19 10:27:44;;;;;;;44.47;25.30;;;0.20;99.90;;;;;;5112539;28;20618;-75
2024/01/19 10:30:12;;;;;;;37.43;23.63;;;0.20;99.90;;;;;;5111114;28;20205;-75
2024/01/19 10:32:39;;;;;;;37.73;22.47;;;0.30;99.90;;;;;;5111532;28;20197;-76
2024/01/19 10:35:13;;;;;;;39.90;24.63;;;0.30;99.90;;;;;;5113901;28;20189;-75
2024/01/19 10:37:38;;;;;;;40.37;23.43;;;0.40;99.90;;;;;;5116792;28;20652;-75
2024/01/19 10:40:26;;;;;;;37.80;22.70;;;0.30;99.90;;;;;;5113077;28;20243;-75
2024/01/19 10:42:56;;;;;;;37.00;22.93;;;0.30;99.90;;;;;;5111027;28;20181;-75
2024/01/19 10:45:27;;;;;;;38.57;23.20;;;0.30;99.90;;;;;;5111026;28;20194;-75
2024/01/19 10:47:54;;;;;;;40.33;24.57;;;0.40;99.90;;;;;;5112321;28;20633;-75
2024/01/19 10:50:21;;;;;;;38.17;22.17;;;0.40;99.90;;;;;;5112422;28;20247;-75
2024/01/19 10:52:53;;;;;;;42.30;22.90;;;0.40;99.90;;;;;;5111055;28;20256;-75
2024/01/19 10:55:20;;;;;;;37.23;22.17;;;0.40;99.90;;;;;;5110822;28;20180;-75
2024/01/19 10:57:51;;;;;;;38.00;22.47;;;0.40;99.90;;;;;;5110840;28;20524;-75
2024/01/19 11:00:25;;;;;;;38.70;23.57;;;0.40;99.90;;;;;;5112198;28;20182;-76
2024/01/19 11:02:54;;;;;;;42.37;23.60;;;0.40;99.90;;;;;;5112513;28;20164;-75
2024/01/19 11:05:19;;;;;;;38.77;23.67;;;0.40;99.90;;;;;;5114660;28;20255;-75
2024/01/19 11:07:53;;;;;;;39.27;24.17;;;0.40;99.90;;;;;;5114738;28;20169;-74
2024/01/19 11:10:20;;;;;;;37.20;22.87;;;0.40;99.90;;;;;;5114508;28;20641;-75
2024/01/19 11:12:49;;;;;;;37.70;22.63;;;0.50;99.90;;;;;;5115987;28;20176;-76
2024/01/19 11:15:25;;;;;;;37.73;22.03;;;0.50;99.90;;;;;;5115734;28;20173;-75
2024/01/19 11:17:53;;;;;;;35.33;21.40;;;0.50;99.90;;;;;;5115893;28;20214;-76
2024/01/19 11:20:22;;;;;;;42.87;21.67;;;0.60;99.90;;;;;;5115991;28;20276;-76
2024/01/19 11:22:47;;;;;;;35.03;21.93;;;0.60;99.90;;;;;;5115787;28;20165;-75
2024/01/19 11:25:17;;;;;;;33.77;22.87;;;0.60;99.90;;;;;;5114351;28;20287;-76
2024/01/19 11:27:55;;;;;;;37.37;22.27;;;0.70;99.90;;;;;;5115543;28;20171;-76
2024/01/19 11:30:32;;;;;;;36.10;21.93;;;0.70;99.90;;;;;;5116481;28;20200;-75
2024/01/19 11:33:15;;;;;;;35.73;21.20;;;0.70;99.90;;;;;;5115386;28;20264;-75
2024/01/19 11:35:41;;;;;;;40.50;20.73;;;0.70;99.90;;;;;;5113988;28;20192;-76
2024/01/19 11:38:06;;;;;;;39.27;21.47;;;0.80;99.90;;;;;;5115281;28;20162;-75
2024/01/19 11:40:34;;;;;;;34.07;20.57;;;0.80;99.90;;;;;;5114162;28;20173;-76
2024/01/19 11:43:00;;;;;;;32.20;21.40;;;0.80;99.90;;;;;;5115420;27;20208;-76
2024/01/19 11:45:28;;;;;;;34.60;19.77;;;0.90;99.90;;;;;;5115525;28;20637;-75
2024/01/19 11:47:55;;;;;;;33.93;20.03;;;0.90;99.90;;;;;;5113721;28;20261;-76
2024/01/19 11:50:42;;;;;;;33.93;19.37;;;0.90;99.90;;;;;;5115080;28;20256;-76
2024/01/19 11:53:08;;;;;;;31.80;19.63;;;1.00;99.90;;;;;;5113899;28;20154;-76
2024/01/19 11:55:33;;;;;;;34.87;21.00;;;1.00;99.90;;;;;;5115003;28;20285;-75
2024/01/19 11:58:24;;;;;;;32.60;20.03;;;1.00;99.90;;;;;;5114850;28;20174;-76
2024/01/19 12:00:52;;;;;;;34.63;19.43;;;1.10;99.90;;;;;;5113733;28;20216;-76
2024/01/19 12:03:19;;;;;;;29.90;19.00;;;1.10;99.90;;;;;;5115413;28;20565;-76
2024/01/19 12:05:45;;;;;;;30.57;18.33;;;1.10;99.90;;;;;;5114649;28;20182;-76
2024/01/19 12:08:12;;;;;;;34.27;19.57;;;1.10;99.90;;;;;;5113357;28;20668;-75
2024/01/19 12:10:37;;;;;;;35.87;21.03;;;1.20;99.90;;;;;;5113399;28;20174;-76
2024/01/19 12:13:03;;;;;;;32.63;21.23;;;1.20;99.90;;;;;;5114859;28;20176;-76
2024/01/19 12:15:28;;;;;;;31.33;20.87;;;1.20;99.90;;;;;;5113465;28;20652;-76
2024/01/19 12:17:54;;;;;;;36.90;19.70;;;1.20;99.90;;;;;;5114534;28;20177;-76
2024/01/19 12:20:19;;;;;;;37.63;21.77;;;1.30;99.90;;;;;;5113123;28;20189;-76
2024/01/19 12:22:50;;;;;;;35.27;19.73;;;1.30;99.90;;;;;;5113243;28;20166;-75
2024/01/19 12:25:18;;;;;;;31.27;20.30;;;1.30;99.90;;;;;;5113183;28;20165;-76